createdAt,value
2023-03-28T00:02:10.461Z,6.80
2023-03-28T00:04:42.423Z,4.00
2023-03-28T00:07:15.234Z,5.50
2023-03-28T00:09:48.716Z,4.80
2023-03-28T00:12:21.178Z,4.70
2023-03-28T00:14:52.975Z,1.90
2023-03-28T00:17:25.126Z,1.90
2023-03-28T00:19:57.080Z,3.00
2023-03-28T00:22:30.499Z,2.50
2023-03-28T00:25:03.103Z,3.00
2023-03-28T00:27:35.794Z,2.30
2023-03-28T00:30:11.565Z,3.70
2023-03-28T00:32:43.478Z,2.30
2023-03-28T00:35:15.822Z,4.30
2023-03-28T00:37:51.550Z,2.10
2023-03-28T00:40:24.134Z,3.30
2023-03-28T00:42:56.521Z,3.20
2023-03-28T00:45:28.836Z,2.20
2023-03-28T00:50:38.580Z,1.50
2023-03-28T00:53:16.562Z,1.60
2023-03-28T00:55:50.941Z,2.40
2023-03-28T00:58:27.580Z,1.90
2023-03-28T01:01:00.669Z,1.90
2023-03-28T01:03:35.710Z,4.10
2023-03-28T01:06:12.639Z,1.90
2023-03-28T01:08:47.515Z,2.20
2023-03-28T01:11:20.686Z,2.20
2023-03-28T01:13:55.369Z,3.40
2023-03-28T01:16:32.650Z,2.80
2023-03-28T01:22:06.552Z,3.00
2023-03-28T01:25:02.881Z,5.20
2023-03-28T01:27:41.293Z,2.70
2023-03-28T01:30:36.839Z,2.40
2023-03-28T01:34:08.077Z,2.10
2023-03-28T01:37:01.568Z,3.70
2023-03-28T01:39:47.861Z,2.60
2023-03-28T01:42:30.984Z,2.60
2023-03-28T01:45:16.825Z,3.60
2023-03-28T01:47:59.381Z,3.40
2023-03-28T01:50:38.165Z,4.20
2023-03-28T01:53:18.714Z,3.80
2023-03-28T01:55:58.073Z,2.10
2023-03-28T01:58:44.256Z,3.80
2023-03-28T02:01:26.449Z,3.50
2023-03-28T02:04:07.000Z,3.90
2023-03-28T02:07:02.302Z,3.90
2023-03-28T02:09:43.802Z,6.70
2023-03-28T02:15:33.550Z,4.60
2023-03-28T02:18:31.650Z,3.70
2023-03-28T02:21:26.554Z,2.50
2023-03-28T02:24:17.476Z,4.40
2023-03-28T02:27:12.743Z,2.80
2023-03-28T02:29:55.627Z,4.50
2023-03-28T02:35:09.724Z,6.10
2023-03-28T02:37:50.468Z,4.90
2023-03-28T02:40:42.802Z,6.00
2023-03-28T02:43:35.764Z,4.70
2023-03-28T02:46:13.690Z,4.70
2023-03-28T02:49:11.286Z,5.90
2023-03-28T02:51:50.716Z,6.80
2023-03-28T02:54:32.555Z,6.10
2023-03-28T02:57:36.608Z,5.50
2023-03-28T03:00:16.687Z,7.20
2023-03-28T03:02:52.812Z,5.80
2023-03-28T03:05:24.810Z,6.10
2023-03-28T03:07:56.990Z,5.40
2023-03-28T03:10:28.865Z,4.70
2023-03-28T03:13:00.927Z,4.70
2023-03-28T03:18:04.552Z,4.20
2023-03-28T03:20:37.343Z,4.00
2023-03-28T03:23:09.510Z,3.50
2023-03-28T03:25:43.307Z,5.50
2023-03-28T03:28:23.435Z,4.60
2023-03-28T03:33:50.788Z,3.50
2023-03-28T03:36:27.092Z,6.90
2023-03-28T03:38:59.103Z,3.10
2023-03-28T03:41:31.466Z,5.40
2023-03-28T03:44:03.692Z,3.50
2023-03-28T03:46:36.690Z,3.80
2023-03-28T03:49:09.550Z,5.70
2023-03-28T03:51:41.521Z,2.60
2023-03-28T03:54:13.367Z,2.90
2023-03-28T03:56:45.359Z,3.60
2023-03-28T03:59:18.382Z,2.60
2023-03-28T04:01:51.386Z,2.60
2023-03-28T04:04:45.786Z,2.20
2023-03-28T04:07:28.274Z,3.20
2023-03-28T04:12:33.021Z,3.30
2023-03-28T04:15:05.226Z,3.80
2023-03-28T04:17:57.254Z,4.20
2023-03-28T04:20:31.720Z,3.00
2023-03-28T04:23:13.409Z,4.30
2023-03-28T04:25:45.443Z,5.80
2023-03-28T04:28:25.012Z,3.30
2023-03-28T04:31:02.753Z,3.70
2023-03-28T04:34:13.724Z,4.60
2023-03-28T04:36:57.511Z,3.50
2023-03-28T04:39:30.777Z,4.70
2023-03-28T04:42:12.556Z,3.60
2023-03-28T04:45:03.737Z,7.50
2023-03-28T04:47:37.545Z,3.90
2023-03-28T04:50:13.003Z,3.80
2023-03-28T04:52:45.550Z,7.00
2023-03-28T04:55:17.546Z,3.60
2023-03-28T04:57:50.711Z,4.90
2023-03-28T05:00:25.638Z,6.20
2023-03-28T05:03:14.568Z,4.20
2023-03-28T05:05:55.444Z,7.10
2023-03-28T05:08:29.301Z,7.00
2023-03-28T05:11:05.302Z,6.40
2023-03-28T05:13:40.580Z,5.60
2023-03-28T05:16:19.328Z,9.50
2023-03-28T05:19:10.047Z,5.40
2023-03-28T05:22:04.884Z,4.60
2023-03-28T05:24:37.008Z,6.20
2023-03-28T05:27:15.671Z,8.80
2023-03-28T05:29:47.640Z,6.80
2023-03-28T05:32:19.756Z,3.90
2023-03-28T05:34:51.735Z,5.60
2023-03-28T05:37:23.770Z,4.00
2023-03-28T05:40:00.954Z,5.60
2023-03-28T05:42:33.430Z,7.10
2023-03-28T05:45:09.147Z,4.50
2023-03-28T05:47:42.317Z,6.10
2023-03-28T05:50:14.418Z,4.70
2023-03-28T05:52:46.489Z,5.70
2023-03-28T05:55:18.534Z,5.60
2023-03-28T05:57:50.552Z,6.00
2023-03-28T06:00:24.454Z,5.20
2023-03-28T06:02:57.922Z,3.50
2023-03-28T06:05:36.540Z,4.30
2023-03-28T06:08:14.063Z,5.50
2023-03-28T06:10:46.589Z,5.00
2023-03-28T06:13:24.920Z,4.30
2023-03-28T06:15:57.382Z,6.40
2023-03-28T06:18:35.697Z,4.90
2023-03-28T06:21:09.307Z,4.50
2023-03-28T06:23:41.301Z,8.40
2023-03-28T06:26:21.791Z,7.80
2023-03-28T06:28:53.644Z,12.80
2023-03-28T06:31:38.552Z,10.80
2023-03-28T06:34:10.651Z,5.70
2023-03-28T06:36:51.090Z,6.20
2023-03-28T06:39:23.093Z,6.30
2023-03-28T06:42:02.468Z,6.30
2023-03-28T06:44:40.713Z,5.30
2023-03-28T06:47:29.599Z,5.30
2023-03-28T06:50:02.545Z,8.20
2023-03-28T06:52:44.837Z,7.40
2023-03-28T06:55:16.741Z,6.10
2023-03-28T06:57:49.152Z,11.00
2023-03-28T07:00:35.449Z,7.20
2023-03-28T07:03:33.707Z,9.40
2023-03-28T07:06:09.606Z,7.90
2023-03-28T07:08:41.723Z,7.10
2023-03-28T07:11:13.923Z,5.30
2023-03-28T07:13:46.466Z,6.60
2023-03-28T07:16:19.511Z,10.60
2023-03-28T07:18:51.407Z,7.20
2023-03-28T07:21:30.912Z,7.90
2023-03-28T07:24:04.585Z,6.80
2023-03-28T07:29:41.002Z,5.80
2023-03-28T07:32:13.313Z,5.70
2023-03-28T07:34:45.800Z,5.80
2023-03-28T07:37:22.922Z,5.20
2023-03-28T07:40:30.253Z,5.50
2023-03-28T07:43:02.641Z,6.50
2023-03-28T07:45:34.804Z,6.10
2023-03-28T07:48:08.124Z,11.60
2023-03-28T07:50:41.269Z,5.40
2023-03-28T07:53:13.714Z,6.70
2023-03-28T07:55:54.375Z,7.20
2023-03-28T07:58:29.203Z,12.10
2023-03-28T08:01:08.769Z,6.90
2023-03-28T08:03:47.178Z,8.80
2023-03-28T08:06:31.593Z,6.90
2023-03-28T08:09:06.497Z,6.30
2023-03-28T08:11:49.813Z,8.70
2023-03-28T08:16:53.859Z,5.10
2023-03-28T08:19:26.050Z,7.10
2023-03-28T08:22:17.216Z,6.40
2023-03-28T08:24:53.618Z,4.60
2023-03-28T08:27:27.134Z,6.40
2023-03-28T08:30:02.816Z,5.70
2023-03-28T08:32:35.858Z,4.10
2023-03-28T08:37:39.693Z,4.90
2023-03-28T08:40:16.285Z,6.00
2023-03-28T08:42:58.243Z,5.00
2023-03-28T08:45:43.044Z,4.80
2023-03-28T08:48:20.605Z,6.50
2023-03-28T08:50:59.535Z,6.20
2023-03-28T08:53:37.518Z,4.40
2023-03-28T08:56:15.409Z,5.90
2023-03-28T08:58:56.230Z,5.70
2023-03-28T09:01:32.740Z,4.20
2023-03-28T09:04:05.605Z,4.10
2023-03-28T09:09:34.269Z,4.90
2023-03-28T09:12:47.251Z,6.10
2023-03-28T09:15:35.120Z,6.00
2023-03-28T09:18:44.697Z,5.50
2023-03-28T09:21:25.987Z,8.20
2023-03-28T09:24:27.203Z,7.30
2023-03-28T09:27:25.324Z,4.40
2023-03-28T09:30:01.839Z,4.70
2023-03-28T09:32:39.989Z,5.20
2023-03-28T09:35:18.695Z,3.40
2023-03-28T09:37:54.238Z,5.20
2023-03-28T09:40:29.364Z,4.30
2023-03-28T09:43:46.070Z,3.40
2023-03-28T09:46:30.134Z,1.70
2023-03-28T09:49:23.851Z,4.40
2023-03-28T09:52:17.421Z,4.20
2023-03-28T09:54:49.768Z,8.60
2023-03-28T09:57:21.943Z,3.50
2023-03-28T10:00:07.419Z,8.40
2023-03-28T10:02:55.302Z,3.40
2023-03-28T10:05:38.591Z,2.40
2023-03-28T10:08:27.811Z,4.80
2023-03-28T10:11:14.591Z,5.80
2023-03-28T10:13:49.908Z,5.00
2023-03-28T10:16:27.343Z,3.40
2023-03-28T10:19:06.431Z,5.10
2023-03-28T10:22:13.257Z,3.80
2023-03-28T10:24:51.028Z,3.60
2023-03-28T10:27:27.707Z,5.00
2023-03-28T10:30:09.446Z,3.20
2023-03-28T10:32:42.519Z,5.30
2023-03-28T10:35:30.967Z,3.60
2023-03-28T10:38:18.213Z,3.40
2023-03-28T10:41:10.903Z,5.70
2023-03-28T10:43:58.237Z,6.40
2023-03-28T10:46:45.245Z,4.30
2023-03-28T10:49:24.381Z,3.30
2023-03-28T10:52:01.917Z,6.40
2023-03-28T10:54:51.737Z,6.00
2023-03-28T10:57:42.052Z,4.20
2023-03-28T11:00:21.262Z,3.70
2023-03-28T11:03:18.640Z,3.50
2023-03-28T11:06:08.781Z,3.00
2023-03-28T11:08:55.245Z,4.70
2023-03-28T11:11:48.773Z,4.60
2023-03-28T11:14:33.785Z,3.00
2023-03-28T11:17:14.049Z,4.50
2023-03-28T11:20:26.997Z,2.80
2023-03-28T11:23:31.333Z,8.30
2023-03-28T11:26:40.153Z,4.60
2023-03-28T11:29:43.466Z,2.90
2023-03-28T11:32:22.942Z,3.40
2023-03-28T11:35:15.036Z,7.80
2023-03-28T11:37:56.924Z,3.90
2023-03-28T11:40:36.380Z,4.20
2023-03-28T11:43:14.662Z,10.30
2023-03-28T11:45:53.346Z,8.20
2023-03-28T11:48:36.474Z,3.60
2023-03-28T11:51:16.205Z,6.30
2023-03-28T11:54:00.007Z,3.70
2023-03-28T11:56:44.727Z,5.20
2023-03-28T11:59:26.444Z,3.20
2023-03-28T12:02:08.630Z,5.30
2023-03-28T12:04:49.348Z,3.30
2023-03-28T12:07:27.140Z,1.90
2023-03-28T12:10:08.145Z,2.90
2023-03-28T12:12:52.125Z,3.20
2023-03-28T12:15:28.505Z,5.90
2023-03-28T12:18:19.510Z,5.90
2023-03-28T12:21:00.665Z,3.10
2023-03-28T12:23:59.484Z,4.70
2023-03-28T12:27:05.751Z,7.10
2023-03-28T12:29:46.421Z,5.60
2023-03-28T12:32:38.129Z,6.30
2023-03-28T12:35:19.656Z,5.00
2023-03-28T12:38:06.662Z,2.60
2023-03-28T12:40:54.893Z,2.10
2023-03-28T12:43:37.519Z,2.60
2023-03-28T12:46:13.461Z,5.80
2023-03-28T12:48:49.348Z,2.30
2023-03-28T12:51:27.670Z,2.50
2023-03-28T12:54:24.435Z,1.00
2023-03-28T12:57:06.302Z,3.70
2023-03-28T13:00:16.477Z,3.20
2023-03-28T13:03:34.102Z,3.30
2023-03-28T13:06:23.691Z,3.50
2023-03-28T13:09:14.068Z,4.10
2023-03-28T13:11:56.520Z,1.80
2023-03-28T13:14:36.357Z,2.80
2023-03-28T13:17:21.663Z,2.10
2023-03-28T13:19:55.932Z,4.40
2023-03-28T13:22:32.273Z,2.90
2023-03-28T13:25:27.588Z,5.60
2023-03-28T13:28:22.542Z,4.00
2023-03-28T13:31:13.478Z,2.60
2023-03-28T13:33:49.771Z,6.40
2023-03-28T13:36:28.169Z,3.40
2023-03-28T13:39:26.646Z,3.00
2023-03-28T13:42:04.555Z,3.00
2023-03-28T13:44:46.178Z,1.70
2023-03-28T13:47:23.301Z,4.10
2023-03-28T13:50:02.484Z,6.30
2023-03-28T13:52:34.946Z,8.20
2023-03-28T13:55:20.647Z,2.30
2023-03-28T13:57:53.971Z,5.80
2023-03-28T14:00:28.852Z,2.30
2023-03-28T14:03:16.432Z,3.60
2023-03-28T14:05:50.371Z,5.50
2023-03-28T14:08:26.555Z,2.20
2023-03-28T14:11:17.580Z,2.60
2023-03-28T14:14:25.931Z,3.90
2023-03-28T14:16:59.607Z,1.50
2023-03-28T14:19:40.257Z,4.10
2023-03-28T14:22:19.590Z,1.60
2023-03-28T14:24:57.876Z,2.90
2023-03-28T14:27:37.778Z,2.70
2023-03-28T14:30:21.009Z,2.50
2023-03-28T14:32:59.944Z,4.90
2023-03-28T14:35:34.368Z,2.00
2023-03-28T14:38:08.243Z,1.80
2023-03-28T14:40:42.090Z,3.10
2023-03-28T14:43:27.291Z,2.00
2023-03-28T14:46:03.116Z,3.00
2023-03-28T14:48:36.852Z,2.40
2023-03-28T14:51:12.580Z,4.50
2023-03-28T14:53:47.653Z,2.90
2023-03-28T14:56:24.444Z,3.80
2023-03-28T14:59:00.447Z,2.90
2023-03-28T15:01:34.446Z,3.70
2023-03-28T15:04:09.236Z,1.70
2023-03-28T15:06:41.648Z,3.70
2023-03-28T15:09:28.606Z,7.20
2023-03-28T15:12:05.235Z,2.80
2023-03-28T15:14:43.054Z,2.50
2023-03-28T15:17:21.583Z,5.40
2023-03-28T15:19:58.691Z,5.20
2023-03-28T15:22:33.375Z,2.60
2023-03-28T15:25:05.814Z,2.10
2023-03-28T15:27:38.213Z,3.90
2023-03-28T15:30:17.611Z,6.30
2023-03-28T15:32:50.930Z,4.30
2023-03-28T15:35:32.364Z,2.30
2023-03-28T15:38:09.817Z,3.40
2023-03-28T15:40:43.780Z,1.80
2023-03-28T15:43:38.790Z,2.00
2023-03-28T15:46:16.441Z,2.30
2023-03-28T15:48:48.983Z,2.40
2023-03-28T15:51:24.684Z,4.20
2023-03-28T15:53:58.920Z,5.50
2023-03-28T15:56:33.958Z,5.00
2023-03-28T15:59:18.696Z,5.10
2023-03-28T16:01:51.285Z,4.90
2023-03-28T16:04:29.056Z,5.40
2023-03-28T16:07:13.601Z,5.70
2023-03-28T16:09:46.650Z,6.50
2023-03-28T16:12:19.600Z,1.80
2023-03-28T16:15:12.478Z,3.50
2023-03-28T16:17:49.658Z,4.40
2023-03-28T16:20:42.878Z,8.20
2023-03-28T16:23:16.378Z,3.30
2023-03-28T16:25:48.495Z,3.60
2023-03-28T16:28:20.643Z,4.10
2023-03-28T16:30:53.433Z,3.70
2023-03-28T16:33:25.893Z,4.10
2023-03-28T16:35:57.969Z,6.60
2023-03-28T16:38:30.288Z,5.10
2023-03-28T16:41:02.336Z,4.40
2023-03-28T16:43:34.217Z,3.80
2023-03-28T16:46:07.137Z,4.80
2023-03-28T16:48:39.230Z,9.50
2023-03-28T16:51:11.207Z,4.30
2023-03-28T16:53:44.140Z,3.20
2023-03-28T16:56:17.470Z,4.00
2023-03-28T16:58:49.861Z,10.90
2023-03-28T17:01:22.945Z,12.50
2023-03-28T17:03:55.681Z,7.20
2023-03-28T17:06:28.096Z,7.00
2023-03-28T17:09:00.390Z,8.30
2023-03-28T17:11:32.863Z,8.20
2023-03-28T17:14:04.785Z,10.00
2023-03-28T17:16:40.330Z,6.10
2023-03-28T17:19:12.582Z,4.20
2023-03-28T17:21:44.847Z,7.60
2023-03-28T17:24:16.694Z,8.00
2023-03-28T17:26:49.078Z,8.10
2023-03-28T17:29:21.374Z,5.70
2023-03-28T17:31:53.795Z,8.40
2023-03-28T17:34:26.135Z,12.50
2023-03-28T17:36:58.386Z,12.70
2023-03-28T17:39:32.634Z,5.30
2023-03-28T17:42:09.124Z,9.00
2023-03-28T17:44:41.514Z,8.10
2023-03-28T17:47:13.606Z,13.50
2023-03-28T17:49:45.578Z,11.30
2023-03-28T17:52:17.817Z,10.30
2023-03-28T17:54:51.605Z,8.80
2023-03-28T17:57:24.439Z,10.90
2023-03-28T17:59:56.296Z,6.30
2023-03-28T18:02:28.950Z,13.40
2023-03-28T18:05:10.374Z,12.40
2023-03-28T18:07:43.586Z,8.80
2023-03-28T18:10:16.500Z,11.10
2023-03-28T18:12:48.414Z,10.30
2023-03-28T18:15:21.872Z,10.60
2023-03-28T18:17:53.844Z,11.30
2023-03-28T18:20:26.422Z,15.80
2023-03-28T18:22:58.652Z,13.80
2023-03-28T18:25:34.094Z,15.50
2023-03-28T18:28:06.592Z,13.60
2023-03-28T18:30:40.508Z,16.10
2023-03-28T18:33:12.679Z,18.30
2023-03-28T18:38:16.611Z,14.20
2023-03-28T18:40:54.472Z,15.60
2023-03-28T18:43:27.076Z,16.00
2023-03-28T18:46:00.934Z,14.00
2023-03-28T18:48:34.337Z,12.60
2023-03-28T18:53:38.879Z,15.80
2023-03-28T18:56:13.486Z,16.10
2023-03-28T18:58:49.018Z,16.10
2023-03-28T19:01:23.176Z,19.60
2023-03-28T19:03:55.741Z,20.20
2023-03-28T19:06:28.816Z,10.60
2023-03-28T19:09:05.344Z,19.60
2023-03-28T19:11:37.318Z,14.80
2023-03-28T19:14:09.497Z,12.80
2023-03-28T19:16:41.812Z,15.40
2023-03-28T19:19:14.194Z,18.20
2023-03-28T19:24:17.058Z,17.30
2023-03-28T19:26:49.547Z,27.70
2023-03-28T19:29:21.734Z,30.70
2023-03-28T19:31:53.788Z,25.80
2023-03-28T19:34:25.897Z,33.10
2023-03-28T19:36:58.202Z,28.40
2023-03-28T19:39:30.629Z,18.20
2023-03-28T19:42:02.451Z,14.30
2023-03-28T19:44:34.309Z,30.70
2023-03-28T19:47:06.993Z,22.80
2023-03-28T19:49:40.046Z,24.00
2023-03-28T19:52:12.248Z,23.60
2023-03-28T19:54:44.297Z,17.00
2023-03-28T19:57:16.362Z,21.90
2023-03-28T19:59:48.307Z,22.70
2023-03-28T20:02:20.338Z,35.80
2023-03-28T20:04:52.520Z,25.20
2023-03-28T20:07:24.695Z,29.10
2023-03-28T20:09:56.583Z,26.40
2023-03-28T20:12:28.579Z,32.40
2023-03-28T20:15:00.753Z,30.80
2023-03-28T20:17:32.854Z,24.30
2023-03-28T20:20:10.433Z,27.80
2023-03-28T20:22:42.314Z,29.00
2023-03-28T20:25:14.780Z,20.30
2023-03-28T20:27:47.743Z,29.00
2023-03-28T20:30:20.438Z,34.60
2023-03-28T20:35:23.879Z,24.50
2023-03-28T20:37:56.062Z,30.70
2023-03-28T20:40:28.139Z,26.50
2023-03-28T20:43:02.014Z,35.10
2023-03-28T20:45:35.964Z,31.80
2023-03-28T20:48:11.146Z,27.10
2023-03-28T20:50:44.195Z,34.60
2023-03-28T20:53:16.425Z,28.70
2023-03-28T20:55:48.774Z,27.40
2023-03-28T20:58:21.854Z,30.20
2023-03-28T21:00:58.331Z,29.10
2023-03-28T21:03:46.795Z,33.60
2023-03-28T21:06:21.467Z,28.20
2023-03-28T21:08:56.089Z,29.80
2023-03-28T21:11:30.548Z,32.10
2023-03-28T21:14:04.085Z,38.10
2023-03-28T21:16:37.853Z,24.80
2023-03-28T21:19:10.254Z,33.30
2023-03-28T21:21:42.074Z,38.40
2023-03-28T21:24:13.923Z,21.80
2023-03-28T21:26:45.991Z,28.40
2023-03-28T21:29:17.982Z,29.10
2023-03-28T21:31:50.020Z,30.30
2023-03-28T21:34:33.934Z,34.20
2023-03-28T21:37:06.635Z,29.20
2023-03-28T21:39:38.779Z,30.30
2023-03-28T21:42:10.715Z,33.30
2023-03-28T21:44:43.082Z,29.20
2023-03-28T21:47:14.900Z,28.60
2023-03-28T21:49:49.360Z,30.60
2023-03-28T21:52:21.452Z,29.50
2023-03-28T21:54:53.314Z,31.80
2023-03-28T21:57:25.622Z,28.80
2023-03-28T21:59:57.444Z,32.50
2023-03-28T22:02:29.535Z,33.90
2023-03-28T22:05:01.748Z,30.30
2023-03-28T22:07:33.902Z,34.10
2023-03-28T22:10:07.057Z,27.70
2023-03-28T22:12:44.899Z,35.60
2023-03-28T22:15:16.823Z,37.20
2023-03-28T22:17:48.693Z,22.20
2023-03-28T22:20:22.379Z,35.10
2023-03-28T22:22:54.634Z,36.30
2023-03-28T22:25:26.514Z,36.90
2023-03-28T22:27:59.501Z,33.90
2023-03-28T22:30:31.723Z,37.20
2023-03-28T22:33:04.237Z,45.40
2023-03-28T22:38:07.194Z,64.00
2023-03-28T22:40:39.072Z,53.30
2023-03-28T22:43:11.739Z,64.60
2023-03-28T22:45:43.699Z,61.00
2023-03-28T22:48:16.087Z,60.20
2023-03-28T22:50:48.658Z,51.60
2023-03-28T22:53:23.683Z,60.60
2023-03-28T22:55:57.704Z,59.90
2023-03-28T22:58:30.141Z,60.40
2023-03-28T23:01:03.458Z,64.30
2023-03-28T23:03:35.632Z,53.60
2023-03-28T23:06:08.581Z,56.40
2023-03-28T23:08:41.130Z,59.90
2023-03-28T23:11:13.013Z,59.20
2023-03-28T23:13:44.914Z,55.60
2023-03-28T23:16:16.993Z,44.70
2023-03-28T23:18:49.942Z,39.80
2023-03-28T23:21:23.141Z,59.40
2023-03-28T23:23:55.693Z,55.10
2023-03-28T23:26:27.747Z,46.20
2023-03-28T23:28:59.570Z,45.30
2023-03-28T23:31:31.530Z,59.70
2023-03-28T23:34:03.488Z,52.40
2023-03-28T23:36:35.717Z,60.50
2023-03-28T23:39:08.048Z,58.80
2023-03-28T23:41:39.929Z,61.00
2023-03-28T23:44:12.103Z,64.50
2023-03-28T23:46:43.925Z,59.10
2023-03-28T23:49:15.749Z,59.30
2023-03-28T23:51:47.591Z,54.20
2023-03-28T23:54:19.809Z,56.10
2023-03-28T23:56:51.686Z,55.30
2023-03-28T23:59:25.272Z,65.10
